Fizuli, Azerbaijan
Current Conditions -  °F | °C
As of 8:00 PM on Tuesday 25 Nov 2014 (Local Time) from UBEE Reporting Station
Light Rain Light Rain  
Wind Chill: 43°   Ceiling: 3300
Heat Index: 43°   Visibility: 6mi
Dew Point: 39°   Wind: 2mph
Humidity: 87%   Direction: 110°ESE
Pressure: 30.36"   Gusts: NA
Location:  39.6°N, 47.15°E
Report Text: UBEE 251500Z 11002KT 9999 -RA OVC03306/04 Q1028 R30/290360 NOSIG
Loading
Personal Weather Stations






























Interactive Weather Map New forecast layout! Learn more

10-Day Weather Forecast

Advertisements
Track Severe Weather on mobile